Impacts TAF Board INFO
FOR SITUATIONAL AWARENESS. NOT TO BE USED FOR FLIGHT PLANNING PURPOSES.
IDs:

KBOS - Boston/Logan Intl, MA, US

Issued at 1742 UTC 22 Jan 2018
Updated at 1815 UTC 22 Jan 2018
Potential Impact None Slight Moderate High
Time<<23/07Z 23/08Z 23/09Z 23/10Z 23/11Z 23/12Z 23/13Z 23/14Z 23/15Z 23/16Z 23/17Z 23/18Z 23/19Z>>
Type PRVL PRVL PRVL PRVL PRVL PRVL PRVL PRVL PRVL PRVL PRVL PRVL PRVL
VIS 2 2 2 2 2 2 2 2 1 1 1 1 1
CIG 8 8 8 8 8 8 8 8 8 8 8 8 8
Cover OVC OVC OVC OVC OVC OVC OVC OVC OVC OVC OVC OVC OVC
FltCat IFR IFR IFR IFR IFR IFR IFR IFR IFR IFR IFR IFR IFR
WX -SHRA -SHRA -SHRA BR BR BR -RA -RA RA RA RA RA RA
WDir 90 90 90 120 120 120 160 160 170 170 170 170 170
WSpd 9 9 9 4 4 4 8 8 12 12 12 12 12
WGst -- -- -- -- -- -- -- -- 24 24 24 24 24

Raw TAF
KBOS 221742Z 2218/2324 05003KT 2SM BR OVC010
  FM230000 09009KT 2SM -SHRA OVC008
  FM231000 12004KT 2SM BR OVC008 WS020/20040KT
  FM231300 16008KT 2SM -RA OVC008 WS020/19045KT
  FM231500 17012G24KT 1SM RA OVC008 WS020/19045KT
  FM232200 19014G33KT 3SM -RA OVC020 WS020/21045KT
  FM232300 21012G25KT 4SM BR BKN030


METAR Board
Radar Display
Forecast Discussion

FOR SITUATIONAL AWARENESS. NOT TO BE USED FOR FLIGHT PLANNING PURPOSES.